Time;durP1;ratioP1;P1;durP2;ratioP2;P2;SDS_P1;SDS_P2;PMS_P1;PMS_P2;Temp;Humidity;BMP_temperature;BMP_pressure;BME280_temperature;BME280_humidity;BME280_pressure;Samples;Min_cycle;Max_cycle;Signal;HPM_P1;HPM_P2
2021/04/04 00:02:16;;;;;;;21.58;5.82;;;3.00;99.90;;;;;;4944052;29;20266;-88
2021/04/04 00:04:43;;;;;;;14.00;6.43;;;3.10;99.90;;;;;;4946511;29;20289;-89
2021/04/04 00:07:09;;;;;;;21.45;6.88;;;5.20;99.90;;;;;;4958266;29;20243;-89
2021/04/04 00:09:36;;;;;;;15.15;7.05;;;3.40;99.90;;;;;;4962764;29;20238;-88
2021/04/04 00:12:04;;;;;;;18.30;8.52;;;3.50;99.90;;;;;;4943552;29;20229;-87
2021/04/04 00:14:31;;;;;;;24.00;7.32;;;3.50;99.90;;;;;;4942919;29;20263;-88
2021/04/04 00:16:57;;;;;;;18.40;6.90;;;3.80;99.90;;;;;;4923826;29;20208;-88
2021/04/04 00:19:24;;;;;;;13.95;7.43;;;3.90;99.90;;;;;;4937837;29;20198;-87
2021/04/04 00:21:50;;;;;;;17.98;7.18;;;4.10;99.90;;;;;;4939853;29;20242;-87
2021/04/04 00:24:17;;;;;;;11.45;6.75;;;5.30;99.90;;;;;;4939401;29;20293;-87
2021/04/04 00:26:43;;;;;;;17.20;7.40;;;4.20;99.90;;;;;;4939636;29;20249;-87
2021/04/04 00:29:11;;;;;;;13.48;7.70;;;4.20;99.90;;;;;;4940712;29;20203;-87
2021/04/04 00:31:38;;;;;;;9.55;6.30;;;4.20;99.90;;;;;;4940782;29;20195;-87
2021/04/04 00:34:05;;;;;;;21.48;6.88;;;4.20;99.90;;;;;;4942171;29;20302;-88
2021/04/04 00:36:32;;;;;;;20.85;7.78;;;5.90;99.90;;;;;;4946372;29;20222;-86
2021/04/04 00:38:58;;;;;;;19.17;9.40;;;4.30;99.90;;;;;;4946563;29;20251;-87
2021/04/04 00:41:25;;;;;;;18.70;6.72;;;4.40;99.90;;;;;;4944149;29;20662;-88
2021/04/04 00:43:51;;;;;;;19.10;7.20;;;4.40;99.90;;;;;;4939461;29;20193;-88
2021/04/04 00:46:18;;;;;;;21.45;7.05;;;6.40;99.90;;;;;;4939255;29;20283;-88
2021/04/04 00:48:45;;;;;;;15.80;6.85;;;4.50;99.90;;;;;;4938874;29;20733;-88
2021/04/04 00:51:11;;;;;;;14.77;7.30;;;5.70;99.90;;;;;;4938907;29;20191;-88
2021/04/04 00:53:38;;;;;;;18.58;6.78;;;4.50;99.90;;;;;;4939071;29;20192;-89
2021/04/04 00:56:05;;;;;;;22.65;7.63;;;4.50;99.90;;;;;;4938926;29;20219;-88
2021/04/04 00:58:32;;;;;;;14.48;6.82;;;4.60;99.90;;;;;;4939218;29;20704;-88
2021/04/04 01:00:58;;;;;;;22.33;7.30;;;5.40;99.90;;;;;;4940568;29;20285;-88
2021/04/04 01:03:26;;;;;;;19.98;7.47;;;4.60;99.90;;;;;;4944516;29;20631;-88
2021/04/04 01:05:54;;;;;;;14.07;7.03;;;4.60;99.90;;;;;;4938155;29;20587;-88
2021/04/04 01:08:21;;;;;;;13.88;6.40;;;4.70;99.90;;;;;;4938732;29;20704;-87
2021/04/04 01:10:49;;;;;;;24.27;10.70;;;4.60;99.90;;;;;;4939598;29;20204;-87
2021/04/04 01:13:20;;;;;;;14.45;6.68;;;4.60;99.90;;;;;;4942655;29;20191;-88
2021/04/04 01:15:52;;;;;;;15.88;6.00;;;4.70;99.90;;;;;;4944789;29;20274;-87
2021/04/04 01:18:24;;;;;;;10.60;4.93;;;3.90;99.90;;;;;;4938525;29;20724;-88
2021/04/04 01:20:55;;;;;;;13.02;6.53;;;5.10;99.90;;;;;;4938544;29;20202;-88
2021/04/04 01:23:55;;;;;;;14.68;6.55;;;6.10;99.90;;;;;;4938471;29;20188;-88
2021/04/04 01:26:34;;;;;;;17.75;6.88;;;4.70;99.90;;;;;;4937569;29;20216;-88
2021/04/04 01:29:05;;;;;;;17.42;7.15;;;4.70;99.90;;;;;;4937074;29;20231;-87
2021/04/04 01:31:33;;;;;;;15.70;7.35;;;5.30;99.90;;;;;;4938311;29;20518;-88
2021/04/04 01:33:59;;;;;;;15.30;7.65;;;4.50;99.90;;;;;;4938476;29;20202;-87
2021/04/04 01:36:27;;;;;;;14.25;7.75;;;4.70;99.90;;;;;;4937969;29;20267;-87
2021/04/04 01:38:54;;;;;;;15.75;6.43;;;4.70;99.90;;;;;;4936652;29;20206;-87
2021/04/04 01:41:25;;;;;;;16.20;7.60;;;4.70;99.90;;;;;;4937555;29;20184;-87
2021/04/04 01:43:57;;;;;;;11.55;6.65;;;5.80;99.90;;;;;;4938001;29;20619;-88
2021/04/04 01:46:25;;;;;;;16.63;7.55;;;4.70;99.90;;;;;;4937617;29;20207;-87
2021/04/04 01:48:52;;;;;;;26.48;8.50;;;4.20;99.90;;;;;;4938006;29;20275;-89
2021/04/04 01:51:20;;;;;;;14.45;6.05;;;4.70;99.90;;;;;;4937292;29;20199;-88
2021/04/04 01:53:48;;;;;;;25.38;8.45;;;4.40;99.90;;;;;;4937870;29;20196;-88
2021/04/04 01:56:15;;;;;;;20.60;7.70;;;5.90;99.90;;;;;;4937445;29;20196;-88
2021/04/04 01:58:43;;;;;;;16.60;7.30;;;5.50;99.90;;;;;;4937859;29;20254;-88
2021/04/04 02:01:11;;;;;;;24.98;7.13;;;4.70;99.90;;;;;;4937390;29;20192;-89
2021/04/04 02:03:40;;;;;;;17.35;7.50;;;7.20;99.90;;;;;;4936873;29;20184;-88
2021/04/04 02:06:07;;;;;;;20.13;8.70;;;4.70;99.90;;;;;;4936098;29;20223;-89
2021/04/04 02:08:35;;;;;;;16.13;7.25;;;6.60;99.90;;;;;;4936641;29;20191;-88
2021/04/04 02:11:03;;;;;;;16.20;7.72;;;5.40;99.90;;;;;;4937410;29;20204;-88
2021/04/04 02:13:31;;;;;;;19.58;7.60;;;4.70;99.90;;;;;;4937245;29;20299;-88
2021/04/04 02:15:59;;;;;;;14.55;6.85;;;4.60;99.90;;;;;;4937252;29;20226;-88
2021/04/04 02:18:26;;;;;;;20.15;7.28;;;4.30;99.90;;;;;;4937322;29;20192;-88
2021/04/04 02:20:57;;;;;;;15.95;6.70;;;4.60;99.90;;;;;;4936270;29;20563;-88
2021/04/04 02:23:26;;;;;;;14.50;8.27;;;5.00;99.90;;;;;;4937418;29;20191;-88
2021/04/04 02:25:54;;;;;;;23.98;8.63;;;4.60;99.90;;;;;;4935749;29;20192;-88
2021/04/04 02:28:20;;;;;;;19.85;6.97;;;5.80;99.90;;;;;;4937546;29;20763;-88
2021/04/04 02:30:47;;;;;;;14.13;6.15;;;4.60;99.90;;;;;;4937041;29;20222;-87
2021/04/04 02:33:22;;;;;;;17.73;8.23;;;4.80;99.90;;;;;;4937799;29;20282;-88
2021/04/04 02:35:53;;;;;;;12.35;6.07;;;6.30;99.90;;;;;;4937472;29;20215;-87
2021/04/04 02:38:27;;;;;;;16.67;6.25;;;6.40;99.90;;;;;;4936507;29;20184;-88
2021/04/04 02:40:54;;;;;;;18.17;6.80;;;4.60;99.90;;;;;;4937641;29;20216;-88
2021/04/04 02:43:26;;;;;;;14.95;7.97;;;6.80;99.90;;;;;;4942439;29;20185;-87
2021/04/04 02:45:55;;;;;;;23.30;8.38;;;5.20;99.90;;;;;;4942052;29;20279;-88
2021/04/04 02:48:27;;;;;;;15.68;7.32;;;4.50;99.90;;;;;;4944914;29;20181;-88
2021/04/04 02:50:57;;;;;;;13.00;9.05;;;5.60;99.90;;;;;;4945234;29;20195;-88
2021/04/04 02:53:25;;;;;;;8.60;5.20;;;5.30;99.90;;;;;;4945470;29;20188;-88
2021/04/04 02:55:53;;;;;;;19.10;8.80;;;4.70;99.90;;;;;;4940651;29;20314;-87
2021/04/04 02:58:21;;;;;;;23.55;8.65;;;4.70;99.90;;;;;;4938406;29;20192;-88
2021/04/04 03:00:54;;;;;;;19.70;6.80;;;5.10;99.90;;;;;;4938890;29;20243;-87
2021/04/04 03:03:22;;;;;;;11.05;6.45;;;5.40;99.90;;;;;;4942863;29;20678;-88
2021/04/04 03:05:49;;;;;;;15.20;6.07;;;6.20;99.90;;;;;;4945258;29;20262;-88
2021/04/04 03:08:16;;;;;;;15.52;6.28;;;4.80;99.90;;;;;;4947820;29;20195;-88
2021/04/04 03:10:49;;;;;;;19.10;6.72;;;5.10;99.90;;;;;;4945679;29;20270;-88
2021/04/04 03:13:17;;;;;;;11.30;7.13;;;4.70;99.90;;;;;;4956929;29;20215;-88
2021/04/04 03:15:44;;;;;;;20.20;7.50;;;4.70;99.90;;;;;;4958045;29;20326;-88
2021/04/04 03:18:10;;;;;;;18.80;6.85;;;5.50;99.90;;;;;;4946431;29;20356;-88
2021/04/04 03:20:37;;;;;;;15.77;7.00;;;5.40;99.90;;;;;;4937248;29;20234;-88
2021/04/04 03:23:04;;;;;;;11.77;5.97;;;4.70;99.90;;;;;;4936611;29;20191;-88
2021/04/04 03:25:31;;;;;;;27.17;8.45;;;4.70;99.90;;;;;;4936443;29;20609;-88
2021/04/04 03:27:59;;;;;;;17.45;6.00;;;4.70;99.90;;;;;;4936591;29;20282;-89
2021/04/04 03:30:36;;;;;;;13.60;7.78;;;5.30;99.90;;;;;;4937024;29;20192;-88
2021/04/04 03:33:05;;;;;;;12.48;5.65;;;4.70;99.90;;;;;;4936562;29;20223;-88
2021/04/04 03:35:33;;;;;;;16.10;6.40;;;4.80;99.90;;;;;;4937671;29;20263;-88
2021/04/04 03:38:01;;;;;;;16.23;6.15;;;5.50;99.90;;;;;;4937746;29;20200;-86
2021/04/04 03:40:28;;;;;;;12.65;6.18;;;4.80;99.90;;;;;;4938423;29;20295;-87
2021/04/04 03:42:56;;;;;;;13.77;7.78;;;4.80;99.90;;;;;;4940051;29;20199;-87
2021/04/04 03:45:25;;;;;;;12.52;6.03;;;4.70;99.90;;;;;;4940244;29;20198;-87
2021/04/04 03:47:52;;;;;;;20.63;7.18;;;4.60;99.90;;;;;;4946286;29;20255;-87
2021/04/04 03:50:21;;;;;;;10.93;7.22;;;6.10;99.90;;;;;;4956273;29;20302;-87
2021/04/04 03:52:49;;;;;;;20.33;8.32;;;4.70;99.90;;;;;;4958188;29;20247;-88
2021/04/04 03:55:21;;;;;;;17.05;6.05;;;4.80;99.90;;;;;;4957916;29;20279;-87
2021/04/04 03:57:49;;;;;;;21.00;7.10;;;4.80;99.90;;;;;;4949006;29;20659;-87
2021/04/04 04:00:19;;;;;;;12.15;7.53;;;4.90;99.90;;;;;;4941263;29;20188;-88
2021/04/04 04:02:48;;;;;;;16.95;6.45;;;4.90;99.90;;;;;;4943316;29;20328;-87
2021/04/04 04:05:17;;;;;;;12.70;6.63;;;4.80;99.90;;;;;;4939859;29;20219;-87
2021/04/04 04:07:45;;;;;;;14.82;6.28;;;4.40;99.90;;;;;;4943173;29;20540;-87
2021/04/04 04:10:14;;;;;;;12.68;6.40;;;4.70;99.90;;;;;;4941393;29;20609;-88
2021/04/04 04:12:42;;;;;;;12.15;5.30;;;4.80;99.90;;;;;;4940593;29;20196;-88
2021/04/04 04:15:09;;;;;;;9.90;6.97;;;5.30;99.90;;;;;;4938772;29;20212;-88
2021/04/04 04:17:37;;;;;;;12.10;6.18;;;4.80;99.90;;;;;;4939281;29;20195;-88
2021/04/04 04:20:06;;;;;;;14.85;6.60;;;4.80;99.90;;;;;;4939473;29;20250;-87
2021/04/04 04:22:33;;;;;;;15.75;6.38;;;4.90;99.90;;;;;;4938648;29;20189;-88
2021/04/04 04:25:01;;;;;;;15.15;7.53;;;5.10;99.90;;;;;;4939376;29;20196;-88
2021/04/04 04:27:27;;;;;;;12.85;6.35;;;4.80;99.90;;;;;;4940769;29;20202;-88
2021/04/04 04:29:55;;;;;;;14.75;5.78;;;6.10;99.90;;;;;;4941555;29;20215;-88
2021/04/04 04:32:25;;;;;;;14.75;6.72;;;4.80;99.90;;;;;;4941466;29;20283;-88
2021/04/04 04:34:54;;;;;;;19.45;5.68;;;4.80;99.90;;;;;;4940089;29;20224;-88
2021/04/04 04:37:23;;;;;;;11.20;5.55;;;4.90;99.90;;;;;;4943669;29;20208;-88
2021/04/04 04:39:50;;;;;;;13.20;6.15;;;5.60;99.90;;;;;;4941685;29;20320;-88
2021/04/04 04:42:18;;;;;;;12.38;6.10;;;4.80;99.90;;;;;;4945432;29;20507;-88
2021/04/04 04:44:46;;;;;;;11.40;6.75;;;5.10;99.90;;;;;;4945593;29;20188;-88
2021/04/04 04:47:14;;;;;;;16.20;5.85;;;4.90;99.90;;;;;;4940708;29;20196;-87
2021/04/04 04:49:43;;;;;;;10.48;4.90;;;4.90;99.90;;;;;;4940337;29;20589;-88
2021/04/04 04:52:11;;;;;;;14.48;4.88;;;4.80;99.90;;;;;;4940554;29;20195;-88
2021/04/04 04:54:41;;;;;;;14.18;6.40;;;6.00;99.90;;;;;;4939149;29;20212;-87
2021/04/04 04:57:09;;;;;;;11.57;6.10;;;4.70;99.90;;;;;;4939440;29;20211;-88
2021/04/04 04:59:36;;;;;;;17.00;6.35;;;4.70;99.90;;;;;;4938509;29;20279;-86
2021/04/04 05:02:05;;;;;;;10.35;5.55;;;4.70;99.90;;;;;;4938384;29;20278;-86
2021/04/04 05:04:32;;;;;;;12.25;5.55;;;4.80;99.90;;;;;;4938136;29;20547;-86
2021/04/04 05:06:59;;;;;;;10.63;5.25;;;4.80;99.90;;;;;;4938258;29;20192;-86
2021/04/04 05:09:26;;;;;;;18.02;6.43;;;4.70;99.90;;;;;;4937582;29;20248;-86
2021/04/04 05:11:54;;;;;;;20.80;7.25;;;4.80;99.90;;;;;;4938684;29;20206;-86
2021/04/04 05:14:20;;;;;;;18.17;6.43;;;4.80;99.90;;;;;;4937955;29;20204;-86
2021/04/04 05:16:47;;;;;;;19.50;7.40;;;6.30;99.90;;;;;;4938227;29;20198;-86
2021/04/04 05:19:14;;;;;;;17.42;6.88;;;4.80;99.90;;;;;;4938198;29;20192;-86
2021/04/04 05:21:43;;;;;;;10.88;5.20;;;4.80;99.90;;;;;;4938688;29;20201;-86
2021/04/04 05:24:11;;;;;;;14.07;6.55;;;4.80;99.90;;;;;;4938226;29;20192;-86
2021/04/04 05:26:39;;;;;;;14.95;6.38;;;4.80;99.90;;;;;;4939609;29;20191;-86
2021/04/04 05:29:08;;;;;;;17.00;6.07;;;4.80;99.90;;;;;;4940813;29;20195;-85
2021/04/04 05:31:43;;;;;;;12.73;6.93;;;4.80;99.90;;;;;;4940293;29;20242;-85
2021/04/04 05:34:11;;;;;;;9.43;5.35;;;4.80;99.90;;;;;;4938645;29;20199;-86
2021/04/04 05:36:47;;;;;;;12.68;5.30;;;4.80;99.90;;;;;;4937322;29;20283;-86
2021/04/04 05:39:15;;;;;;;13.43;5.70;;;6.90;99.90;;;;;;4938384;29;20339;-86
2021/04/04 05:41:47;;;;;;;8.80;5.20;;;4.80;99.90;;;;;;4937669;29;20270;-86
2021/04/04 05:44:21;;;;;;;19.05;7.10;;;4.80;99.90;;;;;;4938317;29;20200;-86
2021/04/04 05:46:56;;;;;;;10.23;6.50;;;4.90;99.90;;;;;;4937349;29;20259;-86
2021/04/04 05:49:34;;;;;;;17.48;8.23;;;4.90;99.90;;;;;;4937668;29;20279;-86
2021/04/04 05:52:05;;;;;;;10.23;6.03;;;4.90;99.90;;;;;;4932821;29;20192;-85
2021/04/04 05:55:02;;;;;;;14.10;4.93;;;4.90;99.90;;;;;;4936588;29;20192;-86
2021/04/04 05:57:33;;;;;;;11.40;7.57;;;4.90;99.90;;;;;;4937271;29;20195;-84
2021/04/04 06:00:04;;;;;;;14.88;7.43;;;5.00;99.90;;;;;;4937591;29;20640;-86
2021/04/04 06:02:54;;;;;;;12.98;6.82;;;5.00;99.90;;;;;;4937578;29;20214;-87
2021/04/04 06:05:35;;;;;;;10.15;7.07;;;5.10;99.90;;;;;;4936885;29;20223;-87
2021/04/04 06:08:40;;;;;;;17.02;8.63;;;5.10;99.90;;;;;;4936953;29;20659;-87
2021/04/04 06:11:16;;;;;;;15.00;8.35;;;5.20;99.90;;;;;;4937264;29;20196;-86
2021/04/04 06:13:56;;;;;;;16.48;8.52;;;5.20;99.90;;;;;;4937174;29;20191;-89
2021/04/04 06:16:35;;;;;;;16.00;6.78;;;5.30;99.90;;;;;;4940136;29;20703;-89
2021/04/04 06:19:13;;;;;;;14.98;5.25;;;5.30;99.90;;;;;;4943324;29;20195;-89
2021/04/04 06:21:47;;;;;;;19.90;7.35;;;5.30;99.90;;;;;;4956158;29;20192;-89
2021/04/04 06:24:22;;;;;;;11.80;5.63;;;5.30;99.90;;;;;;4959292;29;20204;-89
2021/04/04 06:27:02;;;;;;;10.48;5.35;;;5.30;99.90;;;;;;4939491;29;20311;-89
2021/04/04 06:29:35;;;;;;;11.75;5.53;;;5.30;99.90;;;;;;4925671;29;20253;-89
2021/04/04 06:32:08;;;;;;;10.98;5.35;;;5.30;99.90;;;;;;4938681;29;20195;-88
2021/04/04 06:34:41;;;;;;;12.73;5.35;;;5.30;99.90;;;;;;4938634;29;20401;-88
2021/04/04 06:37:34;;;;;;;11.85;6.00;;;5.40;99.90;;;;;;4934940;29;20284;-87
2021/04/04 06:40:08;;;;;;;11.25;5.60;;;5.30;99.90;;;;;;4945048;29;20196;-87
2021/04/04 06:42:47;;;;;;;16.15;6.97;;;5.40;99.90;;;;;;4941619;29;20190;-89
2021/04/04 06:45:23;;;;;;;11.43;4.53;;;5.30;99.90;;;;;;4951730;28;20187;-87
2021/04/04 06:48:05;;;;;;;12.13;6.40;;;5.40;99.90;;;;;;4936578;29;20195;-86
2021/04/04 06:50:36;;;;;;;9.02;4.78;;;5.30;99.90;;;;;;4935865;29;20257;-86
2021/04/04 06:53:11;;;;;;;11.23;4.70;;;5.40;99.90;;;;;;4936586;29;20191;-86
2021/04/04 06:55:46;;;;;;;11.85;5.38;;;5.40;99.90;;;;;;4920604;29;20224;-85
2021/04/04 06:58:42;;;;;;;11.70;4.90;;;5.50;99.90;;;;;;4935704;29;20198;-84
2021/04/04 07:01:17;;;;;;;11.05;4.45;;;5.50;99.90;;;;;;4929038;29;20216;-87
2021/04/04 07:03:56;;;;;;;9.27;5.57;;;5.40;99.90;;;;;;4936981;29;20291;-86
2021/04/04 07:06:55;;;;;;;12.35;5.75;;;5.40;99.90;;;;;;4928024;29;20601;-85
2021/04/04 07:09:50;;;;;;;8.40;4.90;;;5.30;99.90;;;;;;4934888;29;20195;-83
2021/04/04 07:12:31;;;;;;;10.60;4.53;;;5.30;99.90;;;;;;4937280;29;20196;-85
2021/04/04 07:15:09;;;;;;;23.33;5.53;;;5.40;99.90;;;;;;4936011;29;20726;-85
2021/04/04 07:17:54;;;;;;;11.60;4.53;;;5.50;99.90;;;;;;4935512;29;20336;-85
2021/04/04 07:20:33;;;;;;;7.65;4.13;;;5.50;99.90;;;;;;4935904;29;20211;-84
2021/04/04 07:23:43;;;;;;;8.43;4.30;;;5.60;99.90;;;;;;4936115;29;20648;-84
2021/04/04 07:26:30;;;;;;;12.88;5.15;;;5.60;99.90;;;;;;4917412;29;20197;-85
2021/04/04 07:29:20;;;;;;;15.43;5.43;;;5.60;99.90;;;;;;4919773;29;20218;-84
2021/04/04 07:31:50;;;;;;;12.35;5.22;;;5.50;99.90;;;;;;4936359;29;20208;-84
2021/04/04 07:34:22;;;;;;;18.13;5.72;;;5.50;99.90;;;;;;4936185;29;20196;-86
2021/04/04 07:37:02;;;;;;;16.15;5.53;;;5.50;99.90;;;;;;4935596;29;20246;-86
2021/04/04 07:39:33;;;;;;;8.07;5.03;;;5.40;99.90;;;;;;4940472;29;20188;-84
2021/04/04 07:42:12;;;;;;;16.05;6.30;;;5.50;99.90;;;;;;4943520;29;20196;-85
2021/04/04 07:44:43;;;;;;;14.30;5.00;;;5.50;99.90;;;;;;4943796;29;20194;-84
2021/04/04 07:47:15;;;;;;;14.48;4.90;;;5.50;99.90;;;;;;4943859;29;20184;-83
2021/04/04 07:49:45;;;;;;;12.52;5.93;;;5.50;99.90;;;;;;4944133;29;20184;-83
2021/04/04 07:52:22;;;;;;;14.90;5.63;;;5.50;99.90;;;;;;4943766;29;20189;-84
2021/04/04 07:54:56;;;;;;;5.88;3.90;;;5.40;99.90;;;;;;4936471;29;20730;-88
2021/04/04 07:57:31;;;;;;;7.85;3.35;;;5.50;99.90;;;;;;4936090;28;20187;-89
2021/04/04 08:00:06;;;;;;;9.70;3.80;;;5.50;99.90;;;;;;4942232;29;20279;-89
2021/04/04 08:02:41;;;;;;;7.03;3.90;;;5.50;99.90;;;;;;4928547;29;20190;-87
2021/04/04 08:05:09;;;;;;;5.10;3.35;;;5.50;99.90;;;;;;4927113;29;20304;-89
2021/04/04 08:07:46;;;;;;;5.53;3.50;;;5.40;99.90;;;;;;4938669;29;20271;-88
2021/04/04 08:10:17;;;;;;;8.50;5.10;;;5.40;99.90;;;;;;4939149;29;20195;-89
2021/04/04 08:12:50;;;;;;;9.30;3.63;;;5.50;99.90;;;;;;4939040;29;20216;-89
2021/04/04 08:15:21;;;;;;;5.90;3.25;;;5.60;99.90;;;;;;4936787;29;20299;-89
2021/04/04 08:17:48;;;;;;;6.32;3.30;;;5.50;99.90;;;;;;4938879;29;20192;-89
2021/04/04 08:20:21;;;;;;;5.10;3.03;;;5.60;99.90;;;;;;4941161;29;20271;-88
2021/04/04 08:22:56;;;;;;;6.30;3.38;;;5.60;99.90;;;;;;4941399;29;20275;-88
2021/04/04 08:25:28;;;;;;;9.10;5.60;;;5.70;99.90;;;;;;4941247;29;20311;-89
2021/04/04 08:27:58;;;;;;;11.00;5.22;;;5.70;99.90;;;;;;4941204;29;20214;-88
2021/04/04 08:30:32;;;;;;;10.20;3.60;;;5.80;99.90;;;;;;4941892;29;20286;-88
2021/04/04 08:33:03;;;;;;;8.88;5.75;;;5.90;99.90;;;;;;4941775;29;20200;-87
2021/04/04 08:35:36;;;;;;;8.13;4.40;;;5.80;99.90;;;;;;4944004;29;20219;-87
2021/04/04 08:38:09;;;;;;;9.48;4.82;;;5.80;99.90;;;;;;4945289;29;20276;-87
2021/04/04 08:40:38;;;;;;;8.73;4.13;;;5.70;99.90;;;;;;4943776;29;20223;-89
2021/04/04 08:43:05;;;;;;;10.60;6.45;;;5.70;99.90;;;;;;4959180;29;20183;-87
2021/04/04 08:45:38;;;;;;;12.05;7.68;;;5.60;99.90;;;;;;4959644;29;20323;-88
2021/04/04 08:48:08;;;;;;;14.27;8.07;;;5.70;99.90;;;;;;4951494;29;20366;-88
2021/04/04 08:50:36;;;;;;;15.20;7.95;;;5.70;99.90;;;;;;4943537;29;20279;-88
2021/04/04 08:53:18;;;;;;;12.50;7.60;;;5.70;99.90;;;;;;4944429;29;20199;-89
2021/04/04 08:55:48;;;;;;;10.40;6.10;;;5.80;99.90;;;;;;4943212;29;20226;-88
2021/04/04 08:58:16;;;;;;;12.05;5.88;;;5.90;99.90;;;;;;4944437;29;20192;-89
2021/04/04 09:00:45;;;;;;;13.43;5.53;;;5.90;99.90;;;;;;4951095;29;20181;-88
2021/04/04 09:03:19;;;;;;;9.18;5.43;;;6.00;99.90;;;;;;4951671;29;20223;-87
2021/04/04 09:05:46;;;;;;;7.88;4.38;;;6.00;99.90;;;;;;4959679;29;20582;-87
2021/04/04 09:08:15;;;;;;;7.10;3.47;;;6.30;99.90;;;;;;4958635;28;20176;-86
2021/04/04 09:10:45;;;;;;;4.72;3.42;;;5.90;99.90;;;;;;4958494;29;20228;-87
2021/04/04 09:13:14;;;;;;;7.20;3.72;;;6.40;99.90;;;;;;4947833;29;20287;-83
2021/04/04 09:15:48;;;;;;;10.63;4.30;;;5.90;99.90;;;;;;4944446;29;20259;-83
2021/04/04 09:18:15;;;;;;;11.40;5.70;;;5.90;99.90;;;;;;4943361;29;20192;-84
2021/04/04 09:20:43;;;;;;;7.43;4.07;;;5.90;99.90;;;;;;4941565;29;20200;-83
2021/04/04 09:23:11;;;;;;;9.75;4.35;;;6.10;99.90;;;;;;4941626;29;20192;-84
2021/04/04 09:25:47;;;;;;;7.03;5.15;;;6.10;99.90;;;;;;4942743;29;20203;-84
2021/04/04 09:28:14;;;;;;;8.18;3.88;;;6.10;99.90;;;;;;4945146;29;20711;-84
2021/04/04 09:30:43;;;;;;;7.85;4.47;;;6.20;99.90;;;;;;4959522;29;20214;-83
2021/04/04 09:33:13;;;;;;;6.25;3.50;;;6.30;99.90;;;;;;4961384;29;20207;-84
2021/04/04 09:35:40;;;;;;;9.60;4.72;;;6.30;99.90;;;;;;4955877;29;20263;-84
2021/04/04 09:38:09;;;;;;;9.93;4.20;;;6.30;99.90;;;;;;4940824;29;20204;-83
2021/04/04 09:40:36;;;;;;;8.48;3.38;;;6.40;99.90;;;;;;4941078;29;20188;-83
2021/04/04 09:43:07;;;;;;;7.38;3.28;;;6.60;99.90;;;;;;4942684;29;20200;-85
2021/04/04 09:45:34;;;;;;;9.38;3.60;;;6.60;99.90;;;;;;4941642;29;20252;-84
2021/04/04 09:48:20;;;;;;;5.82;3.33;;;6.70;99.90;;;;;;4938914;29;20216;-85
2021/04/04 09:50:47;;;;;;;6.68;3.17;;;6.70;99.90;;;;;;4937535;29;20184;-83
2021/04/04 09:53:13;;;;;;;7.45;2.80;;;6.70;99.90;;;;;;4938455;29;20196;-84
2021/04/04 09:55:45;;;;;;;5.18;3.63;;;6.80;99.90;;;;;;4945441;29;20282;-85
2021/04/04 09:58:29;;;;;;;9.20;4.40;;;6.70;99.90;;;;;;4947966;29;20215;-88
2021/04/04 10:00:55;;;;;;;8.48;4.72;;;8.20;99.90;;;;;;4949566;29;20196;-88
2021/04/04 10:03:21;;;;;;;17.92;6.53;;;6.60;99.90;;;;;;4948745;29;20256;-86
2021/04/04 10:05:51;;;;;;;6.75;4.75;;;6.50;99.90;;;;;;4948799;29;20288;-86
2021/04/04 10:08:19;;;;;;;7.85;4.75;;;6.40;99.90;;;;;;4943303;29;20184;-86
2021/04/04 10:10:47;;;;;;;9.10;6.30;;;8.00;99.90;;;;;;4942486;29;20287;-84
2021/04/04 10:13:15;;;;;;;10.60;6.10;;;6.60;99.90;;;;;;4946248;29;20276;-87
2021/04/04 10:15:44;;;;;;;8.60;5.55;;;6.70;99.90;;;;;;4951729;29;20302;-85
2021/04/04 10:18:15;;;;;;;7.95;6.22;;;6.70;99.90;;;;;;4948023;29;20188;-87
2021/04/04 10:20:44;;;;;;;9.43;7.57;;;7.00;99.90;;;;;;4950719;29;20255;-87
2021/04/04 10:23:12;;;;;;;7.35;6.28;;;6.90;99.90;;;;;;4944521;29;20200;-89
2021/04/04 10:25:55;;;;;;;11.82;6.70;;;7.10;99.90;;;;;;4943823;29;20252;-87
2021/04/04 10:28:23;;;;;;;8.48;5.25;;;7.10;99.90;;;;;;4938679;29;20188;-84
2021/04/04 10:30:56;;;;;;;19.42;7.63;;;7.20;99.90;;;;;;4938284;29;20234;-83
2021/04/04 10:33:25;;;;;;;13.25;7.28;;;8.00;99.90;;;;;;4936534;29;20224;-84
2021/04/04 10:35:53;;;;;;;13.50;6.82;;;7.20;99.90;;;;;;4938017;29;20263;-86
2021/04/04 10:38:22;;;;;;;10.88;5.65;;;7.20;99.90;;;;;;4938393;29;20220;-86
2021/04/04 10:40:51;;;;;;;18.65;7.63;;;7.20;99.90;;;;;;4937701;29;20252;-85
2021/04/04 10:43:21;;;;;;;12.77;5.95;;;7.40;99.90;;;;;;4938415;29;20208;-85
2021/04/04 10:46:06;;;;;;;8.68;5.50;;;8.70;99.90;;;;;;4937950;29;20184;-85
2021/04/04 10:48:34;;;;;;;14.13;7.63;;;7.10;99.90;;;;;;4937378;29;20562;-84
2021/04/04 10:51:01;;;;;;;12.13;6.72;;;8.50;99.90;;;;;;4937223;29;20224;-86
2021/04/04 10:53:28;;;;;;;12.88;7.18;;;7.10;99.90;;;;;;4939145;29;20259;-85
2021/04/04 10:55:55;;;;;;;11.77;5.30;;;7.10;99.90;;;;;;4937625;29;20219;-86
2021/04/04 10:58:26;;;;;;;7.93;4.80;;;7.20;99.90;;;;;;4937639;29;20211;-86
2021/04/04 11:00:54;;;;;;;9.18;5.82;;;7.40;99.90;;;;;;4939703;29;20275;-86
2021/04/04 11:03:21;;;;;;;17.35;8.30;;;7.40;99.90;;;;;;4943564;29;20624;-85
2021/04/04 11:05:48;;;;;;;13.40;7.32;;;7.50;99.90;;;;;;4940368;29;20231;-85
2021/04/04 11:08:15;;;;;;;10.05;6.20;;;7.60;99.90;;;;;;4935620;29;20275;-85
2021/04/04 11:10:42;;;;;;;14.95;7.60;;;7.50;99.90;;;;;;4937514;29;20261;-87
2021/04/04 11:13:08;;;;;;;10.77;6.72;;;7.60;99.90;;;;;;4936630;29;20279;-86
2021/04/04 11:15:38;;;;;;;21.02;13.48;;;7.50;99.90;;;;;;4936862;29;20215;-85
2021/04/04 11:18:11;;;;;;;20.30;13.38;;;7.90;99.90;;;;;;4936304;29;20283;-84
2021/04/04 11:20:42;;;;;;;19.30;13.30;;;7.40;99.90;;;;;;4936808;29;20195;-85
2021/04/04 11:23:09;;;;;;;21.75;14.23;;;7.30;99.90;;;;;;4937104;29;20188;-85
2021/04/04 11:25:36;;;;;;;15.90;10.88;;;7.70;99.90;;;;;;4937315;29;20279;-85
2021/04/04 11:28:15;;;;;;;15.30;11.30;;;7.40;99.90;;;;;;4937243;29;20279;-86
2021/04/04 11:30:42;;;;;;;21.52;12.25;;;7.40;99.90;;;;;;4920003;29;20197;-86
2021/04/04 11:33:29;;;;;;;12.05;6.40;;;7.50;99.90;;;;;;4937136;29;20377;-85
2021/04/04 11:36:07;;;;;;;15.05;6.38;;;7.40;99.90;;;;;;4920460;29;20217;-84
2021/04/04 11:38:37;;;;;;;15.15;5.45;;;7.40;99.90;;;;;;4937659;29;20244;-86
2021/04/04 11:41:19;;;;;;;9.15;4.88;;;7.40;99.90;;;;;;4937022;29;20274;-85
2021/04/04 11:43:48;;;;;;;9.63;5.75;;;7.40;99.90;;;;;;4918979;29;20276;-86
2021/04/04 11:46:48;;;;;;;15.93;8.63;;;7.40;99.90;;;;;;4933028;29;20188;-86
2021/04/04 11:49:36;;;;;;;16.98;11.05;;;7.20;99.90;;;;;;4913911;29;20193;-85
2021/04/04 11:52:47;;;;;;;16.40;9.80;;;7.20;99.90;;;;;;4913661;29;20238;-86
2021/04/04 11:55:16;;;;;;;14.02;9.65;;;7.30;99.90;;;;;;4935307;29;20259;-85
2021/04/04 11:57:45;;;;;;;13.65;7.90;;;7.30;99.90;;;;;;4941673;29;20195;-85
2021/04/04 12:00:28;;;;;;;8.15;6.70;;;7.30;99.90;;;;;;4943256;29;20192;-85
2021/04/04 12:03:05;;;;;;;13.52;8.30;;;7.50;99.90;;;;;;4940077;29;20192;-85
2021/04/04 12:05:38;;;;;;;10.98;7.43;;;7.60;99.90;;;;;;4940523;29;20224;-85
2021/04/04 12:08:06;;;;;;;16.50;8.40;;;7.50;99.90;;;;;;4940171;29;20188;-85
2021/04/04 12:10:34;;;;;;;12.65;9.95;;;7.60;99.90;;;;;;4940264;29;20291;-84
2021/04/04 12:13:01;;;;;;;17.52;12.50;;;7.80;99.90;;;;;;4940409;29;20192;-85
2021/04/04 12:15:29;;;;;;;28.75;14.02;;;7.90;99.90;;;;;;4939709;29;20303;-84
2021/04/04 12:17:58;;;;;;;19.33;12.15;;;7.80;99.90;;;;;;4940281;29;20196;-84
2021/04/04 12:20:27;;;;;;;21.02;12.75;;;7.90;99.90;;;;;;4940523;29;20283;-87
2021/04/04 12:22:54;;;;;;;26.15;15.73;;;9.20;99.90;;;;;;4940765;29;20220;-86
2021/04/04 12:25:22;;;;;;;21.58;13.57;;;9.20;99.90;;;;;;4939322;29;20815;-87
2021/04/04 12:27:50;;;;;;;25.17;17.48;;;8.30;99.90;;;;;;4940049;29;20211;-86
2021/04/04 12:30:25;;;;;;;28.85;18.77;;;8.20;99.90;;;;;;4940779;29;20192;-86
2021/04/04 12:33:01;;;;;;;32.63;20.95;;;8.20;99.90;;;;;;4940541;29;20194;-84
2021/04/04 12:35:27;;;;;;;34.72;20.90;;;8.20;99.90;;;;;;4937936;28;20306;-83
2021/04/04 12:37:54;;;;;;;34.25;20.60;;;8.20;99.90;;;;;;4950827;29;20252;-83
2021/04/04 12:40:20;;;;;;;32.33;21.70;;;8.40;99.90;;;;;;4960713;29;20252;-84
2021/04/04 12:42:47;;;;;;;37.38;19.65;;;8.20;99.90;;;;;;4944432;29;20291;-84
2021/04/04 12:45:15;;;;;;;31.73;20.48;;;8.30;99.90;;;;;;4939170;29;20196;-84
2021/04/04 12:47:43;;;;;;;32.38;20.08;;;8.30;99.90;;;;;;4935937;29;20653;-83
2021/04/04 12:50:11;;;;;;;26.35;18.85;;;8.40;99.90;;;;;;4930147;29;20185;-85
2021/04/04 12:52:41;;;;;;;33.33;20.85;;;8.50;99.90;;;;;;4933811;29;20188;-84
2021/04/04 12:55:20;;;;;;;31.98;19.05;;;8.50;99.90;;;;;;4939703;29;20196;-86
2021/04/04 12:57:48;;;;;;;31.42;17.80;;;8.60;99.90;;;;;;4933821;29;20215;-84
2021/04/04 13:00:19;;;;;;;21.63;14.70;;;8.70;99.90;;;;;;4937830;29;20193;-86
2021/04/04 13:03:06;;;;;;;17.85;12.88;;;8.80;99.90;;;;;;4938658;29;20203;-85
2021/04/04 13:05:38;;;;;;;22.20;13.40;;;8.80;99.90;;;;;;4935102;29;20576;-86
2021/04/04 13:08:15;;;;;;;13.38;9.90;;;9.00;99.90;;;;;;4939113;29;20194;-85
2021/04/04 13:10:44;;;;;;;12.80;6.95;;;9.70;99.90;;;;;;4920194;29;20328;-84